This is the latest recevied weather packets stored in our database for station/object HS3UAA-1. If no packets are shown the sender has not sent any weather packets the latest 10 day(s).
| Time | Temp. | Humidity | Pressure | Rain* | Wind** | Luminosity | Snow |
|---|---|---|---|---|---|---|---|
| 1787780115 | 33.33° C | 48% | 995 hPa | - | - | 0 W/m² | - |
| 1787779792 | 32.78° C | 49% | 994 hPa | - | - | 0 W/m² | - |
| 1787779470 | 32.78° C | 49% | 994 hPa | - | - | 0 W/m² | - |
| 1787779148 | 33.89° C | 46% | 994 hPa | - | - | 0 W/m² | - |
| 1787778826 | 32.78° C | 49% | 994 hPa | - | - | 0 W/m² | - |
| 1787778504 | 32.78° C | 49% | 994 hPa | - | - | 0 W/m² | - |
| 1787778182 | 32.78° C | 49% | 994 hPa | - | - | 0 W/m² | - |
| 1787777860 | 32.78° C | 49% | 994 hPa | - | - | 0 W/m² | - |
| 1787777538 | 32.78° C | 49% | 994 hPa | - | - | 0 W/m² | - |
| 1787777216 | 32.78° C | 48% | 994 hPa | - | - | 0 W/m² | - |
| 1787776894 | 33.33° C | 48% | 994 hPa | - | - | 0 W/m² | - |
| 1787776572 | 33.89° C | 46% | 994 hPa | - | - | 0 W/m² | - |
| 1787776250 | 33.33° C | 48% | 994 hPa | - | - | 0 W/m² | - |
| 1787775928 | 33.33° C | 48% | 994 hPa | - | - | 0 W/m² | - |
| 1787775606 | 33.33° C | 48% | 994 hPa | - | - | 0 W/m² | - |
| 1787775284 | 33.33° C | 47% | 994 hPa | - | - | 0 W/m² | - |
| 1787774962 | 32.78° C | 49% | 994 hPa | - | - | 0 W/m² | - |
| 1787774640 | 33.33° C | 47% | 994 hPa | - | - | 0 W/m² | - |
| 1787774318 | 33.33° C | 47% | 994 hPa | - | - | 0 W/m² | - |
| 1787773996 | 33.89° C | 46% | 994 hPa | - | - | 0 W/m² | - |
| 1787773674 | 33.89° C | 46% | 994 hPa | - | - | 0 W/m² | - |
| 1787773352 | 32.78° C | 48% | 994 hPa | - | - | 0 W/m² | - |
| 1787773030 | 32.78° C | 48% | 994 hPa | - | - | 0 W/m² | - |
| 1787772708 | 33.89° C | 46% | 994 hPa | - | - | 0 W/m² | - |
| 1787772386 | 32.78° C | 48% | 994 hPa | - | - | 0 W/m² | - |
* Rain since midnight (hover to see other rain measurements)
** Current wind speed in m/s (hover to see current wind gust speed)